Nearby METAR Reports

 

KLXT - Lees Summit Muni, Missouri, USA
Distance from station: E 5mi, 9km
Updated: Sun, 05-Jul-2015 8:53am CDT
Clear
Clear
 Wind from S
Wind: S 8 mph , 13 km/h
Temperature: 73°F , 23°C
Dew Point: 70°F , 21°C
Humidity: 89%
Barometer: 30.02 inHg , 1016.6 hPa
Clouds: Clear
Visibility: 8 miles , 13 km
2015/07/05 13:53 KLXT 051353Z AUTO 19007KT 8SM CLR 23/21 A3002 RMK AO2 SLP157 T02330206
KMKC - Kansas City/Dntn, Missouri, USA
Distance from station: NW 12mi, 19km
Updated: Sun, 05-Jul-2015 9:54am CDT
Clear
Clear
 Wind from S
Wind: S 6 mph , 9 km/h
Temperature: 81°F , 27°C
Heat Index: 85°F , 29°C
Dew Point: 72°F , 22°C
Humidity: 74%
Barometer: 29.98 inHg , 1015.2 hPa
Clouds: Clear
Visibility: 10 miles , 16 km
2015/07/05 14:54 KMKC 051454Z AUTO 17005KT 10SM CLR 27/22 A2998 RMK AO2 SLP143 T02720217 58001 $
 
KIXD - Olathe/Industria, Kansas, USA
Distance from station: WSW 25mi, 41km
Updated: Sun, 05-Jul-2015 9:53am CDT
Clear
Clear
 Wind from S
Wind: S 10 mph , 17 km/h
Temperature: 81°F , 27°C
Heat Index: 85°F , 29°C
Dew Point: 72°F , 22°C
Humidity: 74%
Barometer: 30.00 inHg , 1015.9 hPa
Clouds: Clear
Visibility: 10 miles , 16 km
2015/07/05 14:53 KIXD 051453Z 17009KT 10SM CLR 27/22 A3000 RMK AO2 SLP148 T02670217 50002
KMCI - Kansas City/Intl, Missouri, USA
Distance from station: NW 26mi, 42km
Updated: Sun, 05-Jul-2015 9:53am CDT
Mostly cloudy
Mostly cloudy
 Wind from S
Wind: S 10 mph , 17 km/h
Temperature: 79°F , 26°C
Dew Point: 72°F , 22°C
Humidity: 79%
Barometer: 30.00 inHg , 1015.9 hPa
Clouds: Mostly cloudy
Visibility: 9 miles , 14 km
Cloud details: Partly cloudy 16000 ft
Mostly cloudy 20000 ft
2015/07/05 14:53 KMCI 051453Z 17009KT 9SM SCT160 BKN200 26/22 A3000 RMK AO2 SLP148 T02560217 50004
 
KRCM - Warrensburg Skyh, Missouri, USA
Distance from station: ESE 38mi, 62km
Updated: Sun, 05-Jul-2015 9:35am CDT
Clear
Clear
 Wind from SSE
Wind: SSE 5 mph , 7 km/h
Temperature: 79°F , 26°C
Dew Point: 72°F , 22°C
Humidity: 79%
Barometer: 30.02 inHg , 1016.6 hPa
Clouds: Clear
Visibility: 10 miles , 16 km
2015/07/05 14:35 KRCM 051435Z AUTO 16004KT 10SM CLR 26/22 A3002 RMK AO2
KLWC - Lawrence, Kansas, USA
Distance from station: W 40mi, 65km
Updated: Sun, 05-Jul-2015 9:52am CDT
Clear
Clear
 Wind from SSE
Wind: SSE 8 mph , 13 km/h
Temperature: 79°F , 26°C
Dew Point: 70°F , 21°C
Humidity: 74%
Barometer: 29.98 inHg , 1015.2 hPa
Clouds: Clear
Visibility: 9 miles , 14 km
2015/07/05 14:52 KLWC 051452Z AUTO 15007KT 9SM CLR 26/21 A2998 RMK AO2 SLP145 T02610211 50001
 
KSZL - Whiteman Afb, Missouri, USA
Distance from station: ESE 53mi, 86km
Updated: Sun, 05-Jul-2015 8:58am CDT
Clear
Clear
 Wind from SSW
Wind: SSW 8 mph , 13 km/h
Temperature: 75°F , 24°C
Dew Point: 72°F , 22°C
Humidity: 89%
Barometer: 30.02 inHg , 1016.6 hPa
Clouds: Clear
Visibility: 10 miles , 16 km
2015/07/05 13:58 KSZL 051358Z AUTO 20007KT 10SM CLR 24/22 A3002 RMK AO2 SLP162 T02440220
KSTJ - St. Joseph, Missouri, USA
Distance from station: NNW 59mi, 95km
Updated: Sun, 05-Jul-2015 9:53am CDT
Clear
Clear
 Wind from S
Wind: S 8 mph , 13 km/h
Temperature: 79°F , 26°C
Dew Point: 70°F , 21°C
Humidity: 74%
Barometer: 29.98 inHg , 1015.2 hPa
Clouds: Clear
Visibility: 10 miles , 16 km
2015/07/05 14:53 KSTJ 051453Z 17007KT 10SM CLR 26/21 A2998 RMK AO2 SLP143 T02560211 50002 $
 
KGLY - Clinton, Missouri, USA
Distance from station: SE 61mi, 98km
Updated: Sun, 05-Jul-2015 9:35am CDT
Clear
Clear
 Wind from S
Wind: S 9 mph , 15 km/h
Temperature: 81°F , 27°C
Heat Index: 86°F , 30°C
Dew Point: 73°F , 23°C
Humidity: 79%
Barometer: 30.03 inHg , 1016.9 hPa
Clouds: Clear
Visibility: 8 miles , 13 km
2015/07/05 14:35 KGLY 051435Z AUTO 17008KT 8SM CLR 27/23 A3003 RMK AO2
KFOE - Topeka/Forbes, Kansas, USA
Distance from station: W 64mi, 103km
Updated: Sun, 05-Jul-2015 9:53am CDT
Clear
Clear
 Wind from S
Wind: S 13 mph , 20 km/h
Temperature: 81°F , 27°C
Heat Index: 85°F , 29°C
Dew Point: 72°F , 22°C
Humidity: 74%
Barometer: 29.97 inHg , 1014.9 hPa
Clouds: Clear
Visibility: 8 miles , 13 km
2015/07/05 14:53 KFOE 051453Z 17011KT 8SM CLR 27/22 A2997 RMK AO2 SLP138 T02720217 51004
 
KDMO - Sedalia, Missouri, USA
Distance from station: ESE 72mi, 116km
Updated: Sun, 05-Jul-2015 9:53am CDT
Clear
Clear
 Wind from S
Wind: S 8 mph , 13 km/h
Temperature: 81°F , 27°C
Heat Index: 85°F , 29°C
Dew Point: 72°F , 22°C
Humidity: 74%
Barometer: 30.04 inHg , 1017.3 hPa
Clouds: Clear
Visibility: 10 miles , 16 km
2015/07/05 14:53 KDMO 051453Z AUTO 19007KT 10SM CLR 27/22 A3004 RMK AO2 SLP165 T02720222 50003 TSNO $
KCDJ - Chillicothe, Missouri, USA
Distance from station: NE 74mi, 120km
Updated: Sun, 05-Jul-2015 9:52am CDT

 Wind from S
Wind: S 7 mph , 11 km/h
Temperature: 79°F , 26°C
Dew Point: 72°F , 22°C
Humidity: 79%
Barometer: 30.02 inHg , 1016.6 hPa
2015/07/05 14:52 KCDJ 051452Z AUTO 18006KT 26/22 A3002 RMK AO1 SLP155 T02560217 53001
 
KFNB - Falls City/Brenn, Nebraska, USA
Distance from station: NW 96mi, 154km
Updated: Sun, 05-Jul-2015 9:53am CDT
Clear
Clear
 Wind from SSE
Wind: SSE 13 mph , 20 km/h
Temperature: 75°F , 24°C
Dew Point: 70°F , 21°C
Humidity: 83%
Barometer: 29.94 inHg , 1013.9 hPa
Clouds: Clear
Visibility: 9 miles , 14 km
2015/07/05 14:53 KFNB 051453Z AUTO 15011KT 9SM CLR 24/21 A2994 RMK AO2 SLP131 T02390206 50002
KVER - Boonville, Missouri, USA
Distance from station: E 96mi, 154km
Updated: Sun, 05-Jul-2015 9:55am CDT
Clear
Clear
 Wind from SSE
Wind: SSE 7 mph , 11 km/h
Temperature: 79°F , 26°C
Dew Point: 73°F , 23°C
Humidity: 84%
Barometer: 30.03 inHg , 1016.9 hPa
Clouds: Clear
Visibility: 10 miles , 16 km
2015/07/05 14:55 KVER 051455Z AUTO 16006KT 10SM CLR 26/23 A3003 RMK AO2 T02640231